Time;durP1;ratioP1;P1;durP2;ratioP2;P2;SDS_P1;SDS_P2;PMS_P1;PMS_P2;Temp;Humidity;BMP_temperature;BMP_pressure;BME280_temperature;BME280_humidity;BME280_pressure;Samples;Min_cycle;Max_cycle;Signal;HPM_P1;HPM_P2
2023/10/21 00:01:09;;;;;;;0.93;0.40;;;;;;;13.91;84.18;93142.78;4326157;33;20178;-62
2023/10/21 00:03:34;;;;;;;0.10;0.10;;;;;;;13.95;84.06;93140.91;4312443;33;20182;-62
2023/10/21 00:06:00;;;;;;;0.03;0.03;;;;;;;13.98;84.01;93147.41;4328807;33;20259;-62
2023/10/21 00:08:25;;;;;;;0.10;0.10;;;;;;;13.99;83.65;93154.25;4326196;33;20246;-61
2023/10/21 00:11:05;;;;;;;0.30;0.30;;;;;;;13.88;83.96;93158.75;4325852;33;20221;-61
2023/10/21 00:13:30;;;;;;;0.40;0.40;;;;;;;14.01;83.52;93168.00;4300716;33;20201;-61
2023/10/21 00:15:57;;;;;;;0.20;0.20;;;;;;;13.90;83.80;93173.25;4323066;33;20200;-61
2023/10/21 00:18:24;;;;;;;0.30;0.17;;;;;;;13.90;83.73;93167.91;4325486;33;20187;-62
2023/10/21 00:20:51;;;;;;;0.10;0.10;;;;;;;13.81;84.11;93174.66;4317361;33;20251;-62
2023/10/21 00:23:18;;;;;;;0.10;0.10;;;;;;;13.84;83.65;93172.03;4313801;33;20222;-62
2023/10/21 00:25:43;;;;;;;0.00;0.00;;;;;;;13.72;83.93;93180.28;4304401;33;20245;-61
2023/10/21 00:28:10;;;;;;;1.80;0.50;;;;;;;13.80;83.89;93183.78;4293568;33;20178;-61
2023/10/21 00:30:35;;;;;;;0.77;0.20;;;;;;;13.76;83.75;93184.50;4312177;33;20190;-62
2023/10/21 00:33:01;;;;;;;0.87;0.43;;;;;;;13.76;83.46;93189.06;4307932;32;20257;-62
2023/10/21 00:35:26;;;;;;;0.10;0.10;;;;;;;13.81;83.21;93193.31;4304446;33;20201;-62
2023/10/21 00:37:52;;;;;;;0.20;0.20;;;;;;;13.72;83.46;93205.03;4308299;33;20264;-62
2023/10/21 00:40:17;;;;;;;0.30;0.30;;;;;;;13.71;83.24;93200.84;4312157;33;20190;-61
2023/10/21 00:42:42;;;;;;;0.20;0.20;;;;;;;13.71;83.06;93208.06;4304360;33;20234;-61
2023/10/21 00:45:08;;;;;;;0.63;0.63;;;;;;;13.79;82.64;93208.91;4325461;33;20186;-60
2023/10/21 00:47:34;;;;;;;0.40;0.40;;;;;;;13.80;82.56;93213.09;4311640;33;20201;-61
2023/10/21 00:50:01;;;;;;;0.10;0.10;;;;;;;13.70;82.79;93219.88;4326913;33;20186;-60
2023/10/21 00:52:27;;;;;;;0.10;0.10;;;;;;;13.64;83.45;93224.75;4311741;33;20257;-61
2023/10/21 00:54:56;;;;;;;0.37;0.37;;;;;;;13.48;84.10;93223.41;4325207;33;20292;-61
2023/10/21 00:57:23;;;;;;;0.00;0.00;;;;;;;13.64;83.10;93232.75;4321971;33;20186;-61
2023/10/21 00:59:50;;;;;;;0.20;0.20;;;;;;;13.66;83.05;93241.13;4324374;33;20225;-62
2023/10/21 01:02:16;;;;;;;0.00;0.00;;;;;;;13.63;82.87;93239.19;4324599;33;20192;-62
2023/10/21 01:04:43;;;;;;;0.30;0.30;;;;;;;13.56;83.15;93239.09;4314329;33;20181;-62
2023/10/21 01:07:16;;;;;;;0.20;0.20;;;;;;;13.57;83.25;93243.31;4311732;33;20174;-62
2023/10/21 01:09:44;;;;;;;0.00;0.00;;;;;;;13.53;83.29;93247.81;4322693;33;20190;-62
2023/10/21 01:12:09;;;;;;;0.00;0.00;;;;;;;13.27;84.07;93250.56;4310557;33;20178;-62
2023/10/21 01:14:35;;;;;;;0.00;0.00;;;;;;;13.36;83.97;93251.03;4322166;33;20217;-62
2023/10/21 01:17:00;;;;;;;0.03;0.03;;;;;;;13.44;83.66;93250.00;4313355;33;20182;-62
2023/10/21 01:19:26;;;;;;;0.07;0.07;;;;;;;13.45;83.58;93256.88;4317754;33;20249;-61
2023/10/21 01:21:51;;;;;;;0.10;0.10;;;;;;;13.35;83.67;93254.81;4321447;33;20217;-62
2023/10/21 01:24:18;;;;;;;0.00;0.00;;;;;;;13.53;82.84;93261.13;4323065;33;20240;-62
2023/10/21 01:26:45;;;;;;;0.10;0.10;;;;;;;13.47;82.25;93267.16;4323243;33;20185;-62
2023/10/21 01:29:10;;;;;;;0.20;0.10;;;;;;;13.49;82.07;93264.91;4307927;33;20186;-62
2023/10/21 01:31:36;;;;;;;0.20;0.20;;;;;;;13.66;81.19;93265.13;4334372;33;20185;-62
2023/10/21 01:34:03;;;;;;;0.10;0.10;;;;;;;13.60;81.26;93271.87;4313844;33;20186;-62
2023/10/21 01:36:29;;;;;;;0.00;0.00;;;;;;;13.62;80.85;93274.19;4325930;33;20186;-62
2023/10/21 01:38:55;;;;;;;0.17;0.17;;;;;;;13.54;80.86;93278.66;4304258;33;20258;-61
2023/10/21 01:41:22;;;;;;;0.20;0.20;;;;;;;13.66;80.78;93283.78;4300794;33;20186;-61
2023/10/21 01:43:49;;;;;;;0.13;0.13;;;;;;;13.60;81.25;93285.22;4312943;33;20259;-62
2023/10/21 01:46:14;;;;;;;0.50;0.50;;;;;;;13.52;82.08;93285.47;4311384;33;20189;-62
2023/10/21 01:48:39;;;;;;;0.30;0.30;;;;;;;13.60;82.12;93287.09;4311237;33;20226;-62
2023/10/21 01:51:04;;;;;;;0.53;0.40;;;;;;;13.63;81.97;93294.37;4307788;33;20236;-62
2023/10/21 01:53:33;;;;;;;2.57;0.97;;;;;;;13.67;81.81;93292.53;4312128;33;20201;-62
2023/10/21 01:56:19;;;;;;;0.40;0.40;;;;;;;13.64;81.99;93288.69;4308444;33;20194;-62
2023/10/21 01:58:45;;;;;;;0.53;0.53;;;;;;;13.58;82.00;93287.47;4323983;33;20186;-62
2023/10/21 02:01:11;;;;;;;0.60;0.60;;;;;;;13.60;81.43;93282.53;4324088;33;20178;-62
2023/10/21 02:03:40;;;;;;;0.77;0.60;;;;;;;13.65;80.94;93292.13;4324376;33;20182;-61
2023/10/21 02:06:06;;;;;;;0.90;0.90;;;;;;;13.73;80.46;93307.81;4310946;33;20182;-63
2023/10/21 02:08:32;;;;;;;0.93;0.57;;;;;;;13.74;80.70;93303.25;4312488;33;20182;-62
2023/10/21 02:10:57;;;;;;;0.23;0.23;;;;;;;13.58;81.32;93300.78;4324213;33;20205;-62
2023/10/21 02:13:23;;;;;;;0.23;0.23;;;;;;;13.48;81.92;93306.75;4324592;33;21422;-62
2023/10/21 02:15:52;;;;;;;0.90;0.33;;;;;;;13.55;81.95;93306.84;4324005;33;20196;-62
2023/10/21 02:18:18;;;;;;;0.40;0.40;;;;;;;13.46;82.82;93319.66;4311138;33;20270;-62
2023/10/21 02:20:44;;;;;;;0.20;0.20;;;;;;;13.52;82.72;93323.53;4311051;33;20228;-62
2023/10/21 02:23:11;;;;;;;0.53;0.53;;;;;;;13.61;82.17;93337.38;4310741;33;20178;-62
2023/10/21 02:25:36;;;;;;;0.50;0.50;;;;;;;13.64;82.05;93357.19;4292064;33;20193;-62
2023/10/21 02:28:05;;;;;;;0.00;0.00;;;;;;;13.57;82.45;93352.53;4326537;33;20192;-62
2023/10/21 02:30:30;;;;;;;0.30;0.30;;;;;;;13.56;82.71;93348.34;4324783;33;20186;-62
2023/10/21 02:32:55;;;;;;;0.27;0.27;;;;;;;13.41;83.16;93354.59;4324219;33;20200;-62
2023/10/21 02:35:22;;;;;;;0.10;0.10;;;;;;;13.47;83.07;93363.81;4310945;33;20186;-61
2023/10/21 02:37:49;;;;;;;0.20;0.20;;;;;;;13.53;82.67;93375.69;4299098;33;20183;-62
2023/10/21 02:40:19;;;;;;;0.00;0.00;;;;;;;13.56;81.94;93380.31;4296541;33;20190;-62
2023/10/21 02:42:45;;;;;;;0.00;0.00;;;;;;;13.39;81.97;93388.81;4318447;33;20189;-62
2023/10/21 02:45:10;;;;;;;0.57;0.57;;;;;;;13.30;82.22;93390.97;4303435;33;20276;-62
2023/10/21 02:47:36;;;;;;;0.00;0.00;;;;;;;13.25;82.59;93393.94;4310581;33;20224;-62
2023/10/21 02:50:06;;;;;;;0.10;0.10;;;;;;;13.31;82.43;93395.16;4325544;33;20205;-62
2023/10/21 02:52:53;;;;;;;0.13;0.13;;;;;;;13.32;82.35;93399.34;4314834;33;20194;-62
2023/10/21 02:55:18;;;;;;;0.00;0.00;;;;;;;13.43;82.24;93394.19;4320927;33;20182;-62
2023/10/21 02:57:45;;;;;;;0.00;0.00;;;;;;;13.50;81.75;93400.41;4310238;33;20254;-62
2023/10/21 03:00:15;;;;;;;0.10;0.10;;;;;;;13.49;81.86;93409.53;4323260;33;20182;-62
2023/10/21 03:02:44;;;;;;;0.20;0.20;;;;;;;13.46;81.63;93415.56;4311195;33;20177;-62
2023/10/21 03:05:11;;;;;;;0.10;0.10;;;;;;;13.38;82.15;93421.91;4310517;32;20234;-62
2023/10/21 03:07:39;;;;;;;1.13;0.90;;;;;;;13.52;81.45;93424.00;4310061;33;20182;-61
2023/10/21 03:10:07;;;;;;;0.20;0.20;;;;;;;13.39;81.75;93436.75;4310661;33;20208;-62
2023/10/21 03:12:32;;;;;;;0.67;0.40;;;;;;;13.38;82.04;93438.66;4312733;33;20195;-62
2023/10/21 03:15:00;;;;;;;0.17;0.17;;;;;;;13.30;82.05;93436.97;4312532;33;20186;-62
2023/10/21 03:17:26;;;;;;;0.07;0.07;;;;;;;13.38;82.03;93432.56;4311273;33;20272;-62
2023/10/21 03:19:55;;;;;;;1.30;0.30;;;;;;;13.45;81.34;93446.00;4324272;33;20230;-61
2023/10/21 03:22:22;;;;;;;0.20;0.20;;;;;;;13.52;80.69;93446.09;4323669;33;20193;-61
2023/10/21 03:24:47;;;;;;;0.17;0.17;;;;;;;13.44;80.55;93449.78;4321324;33;20182;-61
2023/10/21 03:27:14;;;;;;;0.17;0.17;;;;;;;13.51;80.20;93449.88;4311150;33;20275;-61
2023/10/21 03:29:42;;;;;;;0.10;0.10;;;;;;;13.51;79.94;93455.19;4322847;33;20269;-62
2023/10/21 03:32:09;;;;;;;0.10;0.10;;;;;;;13.47;80.06;93465.06;4313479;33;20281;-61
2023/10/21 03:34:36;;;;;;;0.30;0.30;;;;;;;13.39;80.20;93469.47;4313822;33;20186;-62
2023/10/21 03:37:02;;;;;;;1.03;0.47;;;;;;;13.33;80.33;93467.47;4326526;33;20202;-62
2023/10/21 03:39:29;;;;;;;0.10;0.10;;;;;;;13.31;80.58;93473.16;4304100;33;20178;-61
2023/10/21 03:41:54;;;;;;;0.00;0.00;;;;;;;13.32;80.43;93474.69;4310721;33;20260;-61
2023/10/21 03:44:21;;;;;;;0.00;0.00;;;;;;;13.31;80.69;93483.03;4310331;33;20197;-61
2023/10/21 03:46:47;;;;;;;0.20;0.00;;;;;;;13.43;80.46;93482.88;4310736;33;20201;-62
2023/10/21 03:49:14;;;;;;;0.00;0.00;;;;;;;13.44;80.46;93489.72;4322895;33;20207;-62
2023/10/21 03:51:39;;;;;;;0.20;0.17;;;;;;;13.26;81.37;93500.09;4323192;33;20215;-62
2023/10/21 03:54:06;;;;;;;0.20;0.20;;;;;;;13.36;81.20;93501.38;4323424;33;20174;-61
2023/10/21 03:56:32;;;;;;;0.00;0.00;;;;;;;13.40;81.11;93518.97;4324293;33;20182;-62
2023/10/21 03:58:59;;;;;;;0.10;0.10;;;;;;;13.29;81.78;93525.25;4322448;33;20201;-62
2023/10/21 04:01:24;;;;;;;1.60;0.30;;;;;;;13.35;81.67;93523.81;4310066;33;20269;-61
2023/10/21 04:03:51;;;;;;;0.20;0.20;;;;;;;13.20;82.25;93533.47;4323600;33;20205;-61
2023/10/21 04:06:17;;;;;;;0.00;0.00;;;;;;;13.37;81.80;93540.22;4310416;33;20236;-61
2023/10/21 04:08:43;;;;;;;0.27;0.27;;;;;;;13.18;82.37;93530.37;4307672;33;20178;-62
2023/10/21 04:11:09;;;;;;;0.20;0.10;;;;;;;13.29;82.05;93542.00;4288552;33;20192;-61
2023/10/21 04:13:35;;;;;;;0.00;0.00;;;;;;;13.24;82.44;93546.84;4311366;33;20239;-61
2023/10/21 04:16:00;;;;;;;0.20;0.20;;;;;;;13.05;83.24;93543.06;4313720;33;20174;-62
2023/10/21 04:18:26;;;;;;;0.20;0.20;;;;;;;13.11;83.27;93554.16;4271617;33;20185;-61
2023/10/21 04:20:52;;;;;;;0.00;0.00;;;;;;;13.12;83.72;93554.94;4299060;33;20224;-61
2023/10/21 04:23:18;;;;;;;0.10;0.10;;;;;;;13.23;82.90;93561.28;4309610;33;20190;-61
2023/10/21 04:25:44;;;;;;;0.20;0.20;;;;;;;13.18;82.97;93562.31;4312004;33;20236;-61
2023/10/21 04:28:11;;;;;;;0.07;0.07;;;;;;;13.21;83.17;93569.63;4301155;33;20213;-61
2023/10/21 04:30:37;;;;;;;0.00;0.00;;;;;;;13.33;82.56;93572.09;4299488;33;20253;-61
2023/10/21 04:33:03;;;;;;;0.00;0.00;;;;;;;13.34;82.36;93583.53;4303327;33;20237;-61
2023/10/21 04:35:29;;;;;;;0.00;0.00;;;;;;;13.28;82.47;93580.41;4294842;33;20211;-62
2023/10/21 04:37:59;;;;;;;0.40;0.40;;;;;;;13.33;82.51;93593.41;4306952;33;20320;-62
2023/10/21 04:40:25;;;;;;;6.13;0.63;;;;;;;13.26;83.17;93587.19;4296070;33;20281;-61
2023/10/21 04:42:51;;;;;;;0.10;0.10;;;;;;;13.29;83.21;93591.81;4310813;33;20201;-61
2023/10/21 04:45:18;;;;;;;0.30;0.20;;;;;;;13.35;82.77;93598.37;4310617;33;20186;-62
2023/10/21 04:47:44;;;;;;;0.00;0.00;;;;;;;13.33;83.08;93596.06;4307380;33;20233;-62
2023/10/21 04:50:09;;;;;;;0.03;0.03;;;;;;;13.30;83.23;93602.09;4297310;33;20187;-61
2023/10/21 04:52:35;;;;;;;0.10;0.10;;;;;;;13.38;83.32;93608.34;4301882;33;20194;-62
2023/10/21 04:55:02;;;;;;;0.20;0.20;;;;;;;13.37;83.13;93604.91;4312414;33;20205;-61
2023/10/21 04:57:27;;;;;;;0.30;0.30;;;;;;;13.35;83.37;93606.37;4289640;33;20197;-62
2023/10/21 04:59:53;;;;;;;0.63;0.63;;;;;;;13.39;83.20;93615.22;4313781;33;20243;-62
2023/10/21 05:02:18;;;;;;;0.27;0.17;;;;;;;13.46;83.06;93618.00;4302641;33;20205;-61
2023/10/21 05:04:44;;;;;;;0.00;0.00;;;;;;;13.51;82.66;93625.69;4294188;33;20182;-62
2023/10/21 05:07:09;;;;;;;0.30;0.23;;;;;;;13.45;83.07;93629.78;4289785;33;20182;-62
2023/10/21 05:09:35;;;;;;;0.10;0.10;;;;;;;13.44;83.03;93630.91;4300367;33;20201;-62
2023/10/21 05:12:00;;;;;;;0.10;0.10;;;;;;;13.43;83.29;93640.03;4311410;33;20301;-62
2023/10/21 05:14:26;;;;;;;0.00;0.00;;;;;;;13.28;83.45;93636.34;4303260;33;20277;-61
2023/10/21 05:16:51;;;;;;;0.07;0.07;;;;;;;13.40;83.49;93652.16;4315916;33;20169;-62
2023/10/21 05:19:18;;;;;;;0.00;0.00;;;;;;;13.35;83.45;93654.31;4317476;33;20254;-62
2023/10/21 05:21:45;;;;;;;0.17;0.17;;;;;;;13.30;83.93;93646.63;4307721;33;20182;-62
2023/10/21 05:24:10;;;;;;;0.00;0.00;;;;;;;13.33;83.52;93654.66;4322913;33;20182;-62
2023/10/21 05:26:36;;;;;;;0.63;0.00;;;;;;;13.28;83.56;93656.88;4315718;33;20197;-62
2023/10/21 05:29:02;;;;;;;0.10;0.10;;;;;;;13.33;83.38;93665.31;4298674;33;20228;-62
2023/10/21 05:31:29;;;;;;;0.00;0.00;;;;;;;13.22;83.67;93660.91;4310575;33;20205;-62
2023/10/21 05:33:57;;;;;;;0.00;0.00;;;;;;;13.36;83.39;93669.19;4324238;33;21378;-61
2023/10/21 05:36:24;;;;;;;0.10;0.10;;;;;;;13.31;83.45;93664.12;4324880;33;20181;-62
2023/10/21 05:38:49;;;;;;;0.10;0.10;;;;;;;13.30;83.65;93667.94;4324277;33;20186;-62
2023/10/21 05:41:17;;;;;;;0.47;0.40;;;;;;;13.08;84.26;93666.72;4296956;33;20233;-61
2023/10/21 05:43:43;;;;;;;0.13;0.13;;;;;;;13.14;84.39;93669.84;4319497;33;20233;-62
2023/10/21 05:46:09;;;;;;;1.00;0.43;;;;;;;13.13;84.28;93678.94;4310470;33;20233;-61
2023/10/21 05:48:35;;;;;;;0.20;0.20;;;;;;;13.21;84.22;93686.00;4305418;33;20235;-61
2023/10/21 05:51:01;;;;;;;0.10;0.10;;;;;;;13.21;84.52;93691.34;4310720;33;20190;-61
2023/10/21 05:53:28;;;;;;;2.80;0.43;;;;;;;13.13;84.89;93700.25;4316395;33;20311;-60
2023/10/21 05:55:57;;;;;;;0.20;0.20;;;;;;;13.11;84.70;93705.91;4300317;33;20194;-61
2023/10/21 05:58:24;;;;;;;0.10;0.10;;;;;;;13.15;84.67;93714.00;4304344;33;20186;-61
2023/10/21 06:00:49;;;;;;;0.37;0.37;;;;;;;13.21;85.00;93712.63;4310290;33;20179;-62
2023/10/21 06:03:15;;;;;;;0.13;0.13;;;;;;;13.21;84.87;93717.97;4311312;33;20217;-62
2023/10/21 06:05:41;;;;;;;0.40;0.40;;;;;;;13.19;85.48;93725.53;4292495;33;20205;-62
2023/10/21 06:08:07;;;;;;;0.60;0.60;;;;;;;13.33;85.11;93731.13;4292174;33;20197;-62
2023/10/21 06:10:34;;;;;;;0.40;0.40;;;;;;;13.25;85.26;93738.22;4303396;33;20182;-61
2023/10/21 06:13:01;;;;;;;0.23;0.23;;;;;;;13.27;85.45;93751.19;4294484;33;20190;-62
2023/10/21 06:15:27;;;;;;;0.40;0.40;;;;;;;13.49;84.35;93755.84;4312502;33;20193;-61
2023/10/21 06:17:52;;;;;;;0.17;0.17;;;;;;;13.43;84.58;93756.47;4292666;33;20197;-61
2023/10/21 06:20:18;;;;;;;0.33;0.30;;;;;;;13.51;84.54;93758.16;4307423;33;20178;-61
2023/10/21 06:22:43;;;;;;;0.23;0.23;;;;;;;13.52;84.69;93765.78;4317972;33;20221;-62
2023/10/21 06:25:10;;;;;;;0.60;0.53;;;;;;;13.48;84.79;93764.19;4321930;33;20182;-61
2023/10/21 06:27:37;;;;;;;0.20;0.20;;;;;;;13.56;84.51;93769.28;4310978;33;20189;-62
2023/10/21 06:30:05;;;;;;;8.77;0.43;;;;;;;13.49;84.87;93782.50;4319581;33;20187;-61
2023/10/21 06:32:30;;;;;;;1.67;0.67;;;;;;;13.45;85.01;93786.97;4324650;33;20286;-61
2023/10/21 06:34:57;;;;;;;0.30;0.30;;;;;;;13.36;85.97;93789.03;4321141;33;20322;-62
2023/10/21 06:37:22;;;;;;;0.07;0.07;;;;;;;13.36;86.60;93786.38;4310186;33;20189;-61
2023/10/21 06:39:48;;;;;;;0.63;0.60;;;;;;;13.32;86.77;93794.28;4323920;33;20196;-61
2023/10/21 06:42:16;;;;;;;0.00;0.00;;;;;;;13.48;86.47;93804.91;4311388;33;20221;-61
2023/10/21 06:44:43;;;;;;;0.10;0.10;;;;;;;13.45;86.55;93808.28;4322889;33;20233;-61
2023/10/21 06:47:08;;;;;;;0.10;0.10;;;;;;;13.42;86.85;93808.97;4322503;33;20185;-61
2023/10/21 06:49:35;;;;;;;0.17;0.17;;;;;;;13.48;86.81;93809.47;4312250;33;20208;-61
2023/10/21 06:52:00;;;;;;;0.10;0.10;;;;;;;13.60;86.53;93810.13;4309784;33;20245;-61
2023/10/21 06:54:26;;;;;;;0.40;0.40;;;;;;;13.48;86.99;93823.56;4323498;33;20190;-61
2023/10/21 06:56:53;;;;;;;0.17;0.17;;;;;;;13.49;86.36;93830.44;4283746;33;20194;-61
2023/10/21 06:59:18;;;;;;;0.33;0.33;;;;;;;13.45;87.09;93828.81;4310248;33;20197;-61
2023/10/21 07:01:43;;;;;;;0.10;0.10;;;;;;;13.54;86.36;93838.16;4323806;33;20281;-61
2023/10/21 07:04:10;;;;;;;0.37;0.37;;;;;;;13.58;86.71;93843.56;4316400;33;20205;-62
2023/10/21 07:06:40;;;;;;;0.10;0.10;;;;;;;13.57;86.90;93842.00;4305255;33;20178;-61
2023/10/21 07:09:06;;;;;;;4.90;1.13;;;;;;;13.63;86.28;93851.28;4321816;33;20245;-59
2023/10/21 07:11:33;;;;;;;2.40;0.80;;;;;;;14.00;92.64;93862.34;4296791;33;20205;-62
2023/10/21 07:14:03;;;;;;;0.53;0.53;;;;;;;14.58;96.69;93862.31;4315185;33;20182;-62
2023/10/21 07:16:31;;;;;;;0.60;0.60;;;;;;;14.79;94.64;93870.69;4316112;33;20182;-62
2023/10/21 07:18:57;;;;;;;0.30;0.30;;;;;;;15.00;90.59;93875.63;4308317;33;20186;-62
2023/10/21 07:21:24;;;;;;;0.33;0.33;;;;;;;15.23;87.71;93875.63;4322882;33;20186;-62
2023/10/21 07:23:50;;;;;;;0.20;0.20;;;;;;;15.42;85.90;93884.34;4304639;33;20238;-62
2023/10/21 07:26:15;;;;;;;0.47;0.47;;;;;;;15.66;83.71;93882.41;4323612;33;20186;-62
2023/10/21 07:28:46;;;;;;;0.37;0.37;;;;;;;15.78;82.88;93890.25;4322571;33;20186;-62
2023/10/21 07:31:12;;;;;;;0.40;0.30;;;;;;;15.93;81.66;93880.50;4322163;33;20201;-62
2023/10/21 07:33:37;;;;;;;0.70;0.60;;;;;;;16.06;83.62;93893.28;4323678;33;20197;-62
2023/10/21 07:36:04;;;;;;;0.43;0.43;;;;;;;16.22;83.60;93887.75;4314132;33;20182;-62
2023/10/21 07:38:31;;;;;;;1.13;0.60;;;;;;;16.21;78.54;93896.91;4313182;33;20196;-62
2023/10/21 07:40:58;;;;;;;0.70;0.50;;;;;;;16.27;79.44;93898.13;4283236;33;20186;-62
2023/10/21 07:43:23;;;;;;;0.67;0.47;;;;;;;16.49;84.42;93896.47;4301866;33;20193;-62
2023/10/21 07:45:48;;;;;;;0.20;0.20;;;;;;;16.44;83.68;93900.25;4322371;33;20178;-61
2023/10/21 07:48:14;;;;;;;0.47;0.47;;;;;;;16.60;81.58;93899.28;4325003;33;20232;-62
2023/10/21 07:50:41;;;;;;;0.13;0.13;;;;;;;16.74;85.29;93897.56;4318477;33;20245;-61
2023/10/21 07:53:07;;;;;;;4.43;0.60;;;;;;;16.80;80.00;93895.31;4311876;33;20185;-61
2023/10/21 07:55:34;;;;;;;0.17;0.17;;;;;;;16.89;85.12;93898.47;4305958;33;20201;-62
2023/10/21 07:58:00;;;;;;;0.43;0.40;;;;;;;16.90;82.24;93894.66;4324318;33;20190;-62
2023/10/21 08:00:28;;;;;;;0.50;0.50;;;;;;;17.04;86.92;93900.12;4322970;33;20288;-61
2023/10/21 08:02:53;;;;;;;0.30;0.30;;;;;;;16.82;79.82;93909.91;4303364;33;20200;-62
2023/10/21 08:05:24;;;;;;;0.53;0.43;;;;;;;16.81;80.62;93915.62;4322631;32;20185;-61
2023/10/21 08:07:49;;;;;;;1.33;1.30;;;;;;;16.78;74.94;93916.34;4289956;33;20233;-61
2023/10/21 08:10:14;;;;;;;1.83;1.73;;;;;;;16.70;74.84;93920.06;4323116;33;20229;-61
2023/10/21 08:12:40;;;;;;;0.53;0.53;;;;;;;16.66;75.46;93921.94;4326025;33;20315;-61
2023/10/21 08:15:08;;;;;;;0.97;0.93;;;;;;;16.60;74.97;93923.38;4316959;33;20208;-62
2023/10/21 08:17:34;;;;;;;0.20;0.20;;;;;;;16.69;77.64;93915.84;4313573;33;20193;-62
2023/10/21 08:20:02;;;;;;;0.20;0.20;;;;;;;16.75;77.47;93914.41;4324834;33;20212;-61
2023/10/21 08:22:28;;;;;;;0.20;0.20;;;;;;;16.74;75.71;93923.56;4320860;33;20233;-61
2023/10/21 08:24:55;;;;;;;0.20;0.20;;;;;;;16.67;75.95;93928.84;4319686;33;20186;-61
2023/10/21 08:27:21;;;;;;;0.00;0.00;;;;;;;16.70;73.74;93923.53;4310359;33;20245;-61
2023/10/21 08:29:48;;;;;;;0.17;0.17;;;;;;;16.66;73.68;93929.97;4324237;33;20182;-61
2023/10/21 08:32:15;;;;;;;0.00;0.00;;;;;;;16.55;74.35;93929.06;4314002;33;20204;-61
2023/10/21 08:34:42;;;;;;;0.10;0.10;;;;;;;16.60;73.73;93939.47;4322827;33;20229;-61
2023/10/21 08:37:08;;;;;;;0.70;0.70;;;;;;;16.68;75.81;93939.19;4324351;33;20280;-61
2023/10/21 08:39:34;;;;;;;1.10;0.53;;;;;;;16.75;75.30;93946.53;4313217;33;20194;-62
2023/10/21 08:42:00;;;;;;;0.57;0.57;;;;;;;16.79;77.36;93928.59;4323631;33;20269;-62
2023/10/21 08:44:27;;;;;;;0.40;0.40;;;;;;;17.04;81.91;93939.59;4322340;33;21791;-62
2023/10/21 08:46:54;;;;;;;0.13;0.03;;;;;;;17.01;80.10;93941.09;4323354;32;20256;-62
2023/10/21 08:49:20;;;;;;;0.10;0.10;;;;;;;17.10;82.25;93946.12;4323847;33;20186;-62
2023/10/21 08:51:49;;;;;;;0.60;0.50;;;;;;;16.97;79.12;93951.00;4316189;33;20197;-62
2023/10/21 08:54:16;;;;;;;0.57;0.57;;;;;;;17.13;80.84;93961.47;4309245;33;20504;-62
2023/10/21 08:56:42;;;;;;;0.03;0.03;;;;;;;17.30;78.63;93954.75;4318259;33;20170;-62
2023/10/21 08:59:08;;;;;;;1.50;0.47;;;;;;;17.35;78.73;93963.22;4323737;33;20193;-62
2023/10/21 09:01:38;;;;;;;0.67;0.23;;;;;;;17.34;78.16;93967.03;4318309;33;20194;-62
2023/10/21 09:04:06;;;;;;;0.30;0.30;;;;;;;17.32;77.88;93963.19;4296415;33;20178;-62
2023/10/21 09:06:31;;;;;;;0.60;0.33;;;;;;;17.36;79.06;93972.03;4302155;33;20182;-62
2023/10/21 09:08:58;;;;;;;0.60;0.17;;;;;;;17.37;79.41;93971.69;4322173;33;20174;-62
2023/10/21 09:11:26;;;;;;;0.10;0.10;;;;;;;17.38;78.96;93975.91;4323842;33;20190;-62
2023/10/21 09:13:52;;;;;;;0.20;0.20;;;;;;;17.38;74.76;93972.44;4322476;33;20233;-62
2023/10/21 09:16:34;;;;;;;2.63;0.67;;;;;;;17.30;74.15;93981.56;4299572;33;20233;-62
2023/10/21 09:19:09;;;;;;;0.00;0.00;;;;;;;17.34;72.48;93983.12;4306549;33;20182;-62
2023/10/21 09:21:42;;;;;;;0.00;0.00;;;;;;;17.37;74.46;93984.31;4321341;33;20194;-62
2023/10/21 09:24:10;;;;;;;0.10;0.10;;;;;;;17.38;71.89;93991.22;4324695;33;20220;-62
2023/10/21 09:26:46;;;;;;;0.10;0.10;;;;;;;17.41;71.61;93993.16;4311243;33;20186;-62
2023/10/21 09:29:13;;;;;;;0.63;0.40;;;;;;;17.53;72.97;93990.97;4316269;33;20204;-62
2023/10/21 09:31:53;;;;;;;0.20;0.20;;;;;;;17.69;72.07;93989.97;4309570;33;20189;-62
2023/10/21 09:34:26;;;;;;;0.10;0.10;;;;;;;17.87;71.30;93995.50;4323986;33;20248;-62
2023/10/21 09:37:10;;;;;;;0.20;0.20;;;;;;;18.05;69.11;93996.41;4324360;33;20225;-62
2023/10/21 09:39:36;;;;;;;0.00;0.00;;;;;;;18.17;68.58;93996.09;4324812;33;20185;-62
2023/10/21 09:42:06;;;;;;;0.10;0.10;;;;;;;18.08;68.08;94003.72;4324473;33;20218;-62
2023/10/21 09:44:35;;;;;;;0.00;0.00;;;;;;;18.25;68.97;94003.06;4323393;33;20233;-62
2023/10/21 09:47:04;;;;;;;0.00;0.00;;;;;;;18.48;68.31;93998.22;4324255;33;20198;-62
2023/10/21 09:49:37;;;;;;;0.47;0.17;;;;;;;18.60;66.67;94002.50;4310929;33;20182;-60
2023/10/21 09:52:09;;;;;;;0.00;0.00;;;;;;;18.81;66.13;93996.47;4323215;33;20213;-60
2023/10/21 09:55:11;;;;;;;0.10;0.10;;;;;;;18.80;66.73;94006.44;4321478;33;20186;-60
2023/10/21 09:57:40;;;;;;;0.37;0.37;;;;;;;18.65;66.07;94004.06;4317367;33;20193;-60
2023/10/21 10:00:08;;;;;;;0.87;0.10;;;;;;;18.56;65.72;94007.06;4326533;33;20182;-60
2023/10/21 10:02:40;;;;;;;0.00;0.00;;;;;;;18.51;66.48;94010.87;4279699;33;20287;-60
2023/10/21 10:05:07;;;;;;;0.00;0.00;;;;;;;18.49;67.34;94015.88;4324321;33;20189;-60
2023/10/21 10:07:36;;;;;;;0.00;0.00;;;;;;;18.37;65.88;94021.53;4324851;33;20202;-61
2023/10/21 10:10:07;;;;;;;0.30;0.30;;;;;;;18.73;66.64;94019.84;4323400;33;20198;-61
2023/10/21 10:12:52;;;;;;;0.10;0.10;;;;;;;18.69;66.45;94018.31;4324900;33;20236;-61
2023/10/21 10:15:38;;;;;;;0.00;0.00;;;;;;;18.70;65.84;94017.94;4310386;33;20200;-61
2023/10/21 10:18:23;;;;;;;0.20;0.20;;;;;;;18.74;65.94;94013.31;4334356;33;20240;-61
2023/10/21 10:20:56;;;;;;;0.00;0.00;;;;;;;18.58;65.24;94010.16;4301877;33;20187;-62
2023/10/21 10:23:26;;;;;;;0.00;0.00;;;;;;;18.45;64.58;94008.94;4312849;33;20209;-62
2023/10/21 10:25:57;;;;;;;0.13;0.00;;;;;;;17.92;66.41;94012.00;4324841;33;20201;-61
2023/10/21 10:28:27;;;;;;;0.10;0.10;;;;;;;17.79;66.96;94008.84;4322817;33;20197;-61
2023/10/21 10:31:00;;;;;;;0.53;0.53;;;;;;;17.60;67.67;94000.22;4309709;33;20182;-61
2023/10/21 10:33:31;;;;;;;0.10;0.10;;;;;;;17.60;69.03;94009.03;4333601;33;20249;-61
2023/10/21 10:35:57;;;;;;;0.30;0.30;;;;;;;17.44;68.55;94013.88;4259391;33;20276;-60
2023/10/21 10:38:36;;;;;;;0.20;0.20;;;;;;;17.41;68.04;94014.62;4309743;33;20208;-60
2023/10/21 10:41:15;;;;;;;0.10;0.10;;;;;;;17.28;69.75;94021.34;4290865;33;20197;-60
2023/10/21 10:43:49;;;;;;;0.40;0.30;;;;;;;17.36;69.20;94020.31;4303774;33;20238;-60
2023/10/21 10:46:28;;;;;;;0.00;0.00;;;;;;;17.48;68.51;94011.97;4291499;33;20194;-60
2023/10/21 10:48:54;;;;;;;0.00;0.00;;;;;;;17.38;68.60;94015.34;4308055;33;20194;-60
2023/10/21 10:51:30;;;;;;;0.10;0.10;;;;;;;17.40;69.09;94007.72;4308076;33;20210;-60
2023/10/21 10:54:01;;;;;;;0.00;0.00;;;;;;;17.31;68.56;94007.22;4313943;33;22273;-61
2023/10/21 10:56:40;;;;;;;0.10;0.10;;;;;;;17.47;68.82;94010.44;4291735;33;20356;-61
2023/10/21 10:59:13;;;;;;;0.37;0.13;;;;;;;17.49;69.14;94011.63;4303429;33;20194;-62
2023/10/21 11:01:39;;;;;;;0.20;0.20;;;;;;;17.64;66.18;94009.09;4312571;33;20216;-61
2023/10/21 11:04:06;;;;;;;0.10;0.10;;;;;;;17.58;65.16;94005.97;4286131;33;20198;-62
2023/10/21 11:06:42;;;;;;;0.03;0.03;;;;;;;17.59;64.64;94004.81;4262414;33;20186;-61
2023/10/21 11:09:30;;;;;;;0.00;0.00;;;;;;;17.68;65.76;94007.97;4310901;33;20190;-61
2023/10/21 11:11:57;;;;;;;0.20;0.20;;;;;;;17.63;64.63;94011.00;4285835;33;20229;-61
2023/10/21 11:14:24;;;;;;;0.00;0.00;;;;;;;17.66;64.59;94012.97;4313880;33;20204;-61
2023/10/21 11:16:50;;;;;;;0.23;0.23;;;;;;;17.61;65.32;94009.81;4291310;33;20216;-61
2023/10/21 11:19:17;;;;;;;0.10;0.10;;;;;;;17.67;65.19;94011.81;4294925;33;20229;-61
2023/10/21 11:21:48;;;;;;;0.00;0.00;;;;;;;17.61;65.71;94007.91;4311719;33;20204;-61
2023/10/21 11:24:15;;;;;;;0.20;0.20;;;;;;;17.59;66.10;94014.78;4301268;33;20248;-61
2023/10/21 11:26:51;;;;;;;0.20;0.20;;;;;;;17.63;65.85;94002.19;4260699;33;20217;-62
2023/10/21 11:29:19;;;;;;;0.27;0.27;;;;;;;17.52;66.79;94010.87;4302863;33;20202;-61
2023/10/21 11:31:46;;;;;;;0.00;0.00;;;;;;;17.60;65.51;94010.97;4295572;33;20229;-61
2023/10/21 11:34:23;;;;;;;0.10;0.10;;;;;;;17.55;65.76;94004.00;4295146;33;20194;-61
2023/10/21 11:36:52;;;;;;;0.00;0.00;;;;;;;17.59;65.59;94014.78;4303604;33;20215;-60